createdAt,value
2018-12-05T00:00:37.657Z,8.30
2018-12-05T00:03:07.467Z,8.60
2018-12-05T00:05:37.006Z,8.40
2018-12-05T00:08:06.415Z,8.13
2018-12-05T00:10:35.915Z,8.27
2018-12-05T00:13:06.752Z,8.57
2018-12-05T00:15:36.558Z,8.47
2018-12-05T00:18:05.961Z,8.67
2018-12-05T00:20:35.539Z,8.23
2018-12-05T00:23:04.872Z,9.13
2018-12-05T00:25:34.438Z,8.63
2018-12-05T00:28:04.676Z,9.53
2018-12-05T00:30:34.192Z,8.93
2018-12-05T00:33:05.487Z,8.57
2018-12-05T00:35:34.961Z,8.40
2018-12-05T00:38:04.269Z,8.47
2018-12-05T00:40:34.251Z,8.43
2018-12-05T00:43:03.784Z,9.30
2018-12-05T00:45:33.095Z,10.03
2018-12-05T00:48:02.588Z,8.73
2018-12-05T00:50:33.124Z,9.67
2018-12-05T00:53:02.725Z,9.97
2018-12-05T00:55:32.086Z,9.63
2018-12-05T00:58:01.432Z,10.30
2018-12-05T01:00:30.714Z,9.47
2018-12-05T01:02:59.973Z,8.80
2018-12-05T01:05:29.585Z,9.47
2018-12-05T01:07:59.653Z,10.80
2018-12-05T01:10:31.847Z,10.30
2018-12-05T01:13:01.245Z,10.30
2018-12-05T01:15:30.592Z,9.53
2018-12-05T01:17:59.809Z,9.63
2018-12-05T01:20:29.244Z,9.77
2018-12-05T01:23:06.844Z,10.37
2018-12-05T01:25:37.039Z,9.97
2018-12-05T01:28:07.182Z,9.50
2018-12-05T01:30:36.459Z,9.30
2018-12-05T01:33:05.885Z,10.20
2018-12-05T01:35:36.479Z,11.33
2018-12-05T01:38:06.891Z,10.67
2018-12-05T01:40:36.238Z,10.37
2018-12-05T01:43:06.139Z,11.03
2018-12-05T01:45:35.642Z,12.00
2018-12-05T01:48:06.370Z,11.97
2018-12-05T01:50:38.419Z,11.47
2018-12-05T01:53:08.180Z,11.83
2018-12-05T01:55:38.585Z,11.80
2018-12-05T01:58:07.908Z,11.60
2018-12-05T02:00:37.592Z,10.90
2018-12-05T02:03:07.090Z,12.20
2018-12-05T02:05:36.711Z,11.50
2018-12-05T02:08:06.873Z,11.17
2018-12-05T02:10:36.963Z,12.27
2018-12-05T02:13:07.352Z,12.13
2018-12-05T02:15:37.455Z,12.63
2018-12-05T02:18:06.839Z,10.50
2018-12-05T02:20:36.365Z,11.33
2018-12-05T02:23:05.993Z,11.33
2018-12-05T02:25:35.208Z,11.40
2018-12-05T02:28:04.631Z,10.87
2018-12-05T02:30:51.681Z,12.23
2018-12-05T02:33:23.746Z,11.80
2018-12-05T02:35:53.141Z,11.73
2018-12-05T02:38:22.408Z,11.77
2018-12-05T02:40:51.664Z,11.43
2018-12-05T02:43:21.063Z,11.23
2018-12-05T02:45:51.324Z,11.57
2018-12-05T02:48:20.569Z,11.57
2018-12-05T02:50:49.798Z,11.70
2018-12-05T02:53:19.258Z,11.73
2018-12-05T02:55:48.719Z,12.10
2018-12-05T02:58:18.188Z,12.10
2018-12-05T03:00:47.587Z,12.30
2018-12-05T03:03:16.967Z,12.53
2018-12-05T03:05:46.945Z,11.73
2018-12-05T03:08:16.303Z,12.20
2018-12-05T03:10:45.708Z,13.13
2018-12-05T03:13:18.076Z,12.30
2018-12-05T03:15:47.451Z,12.97
2018-12-05T03:18:17.765Z,12.17
2018-12-05T03:20:47.106Z,12.80
2018-12-05T03:23:16.397Z,12.33
2018-12-05T03:25:45.804Z,12.67
2018-12-05T03:28:15.175Z,12.50
2018-12-05T03:30:44.622Z,12.47
2018-12-05T03:33:14.043Z,12.53
2018-12-05T03:35:44.628Z,11.67
2018-12-05T03:38:13.940Z,12.20
2018-12-05T03:40:43.210Z,12.03
2018-12-05T03:43:14.305Z,11.73
2018-12-05T03:45:44.396Z,12.27
2018-12-05T03:48:13.737Z,12.40
2018-12-05T03:50:44.287Z,11.70
2018-12-05T03:53:13.609Z,12.60
2018-12-05T03:55:42.810Z,12.30
2018-12-05T03:58:12.284Z,12.13
2018-12-05T04:00:41.634Z,12.73
2018-12-05T04:03:11.188Z,11.17
2018-12-05T04:05:40.474Z,11.80
2018-12-05T04:08:09.739Z,11.70
2018-12-05T04:10:39.392Z,11.93
2018-12-05T04:13:08.779Z,12.50
2018-12-05T04:15:38.285Z,11.50
2018-12-05T04:18:07.496Z,12.03
2018-12-05T04:20:36.745Z,11.40
2018-12-05T04:23:06.117Z,10.87
2018-12-05T04:25:35.454Z,12.97
2018-12-05T04:28:04.951Z,11.03
2018-12-05T04:30:34.210Z,30.13
2018-12-05T04:33:03.489Z,14.03
2018-12-05T04:35:32.852Z,11.83
2018-12-05T04:38:02.332Z,11.30
2018-12-05T04:40:31.727Z,11.40
2018-12-05T04:43:01.233Z,11.93
2018-12-05T04:45:30.714Z,11.50
2018-12-05T04:47:59.925Z,12.03
2018-12-05T04:50:29.249Z,12.60
2018-12-05T04:52:58.639Z,12.27
2018-12-05T04:55:27.838Z,11.87
2018-12-05T04:57:57.070Z,12.77
2018-12-05T05:00:26.280Z,12.93
2018-12-05T05:02:55.604Z,12.20
2018-12-05T05:05:25.316Z,11.43
2018-12-05T05:07:54.680Z,11.80
2018-12-05T05:10:24.106Z,12.10
2018-12-05T05:12:53.462Z,11.30
2018-12-05T05:15:22.744Z,11.73
2018-12-05T05:17:51.992Z,11.50
2018-12-05T05:20:22.195Z,12.00
2018-12-05T05:22:51.669Z,13.10
2018-12-05T05:25:21.988Z,12.13
2018-12-05T05:27:52.467Z,11.37
2018-12-05T05:30:22.342Z,12.40
2018-12-05T05:32:54.040Z,12.57
2018-12-05T05:35:26.722Z,12.10
2018-12-05T05:37:56.099Z,11.40
2018-12-05T05:40:25.432Z,11.63
2018-12-05T05:42:56.497Z,11.70
2018-12-05T05:45:26.927Z,11.43
2018-12-05T05:47:56.493Z,11.57
2018-12-05T05:50:25.685Z,12.93
2018-12-05T05:52:55.166Z,13.87
2018-12-05T05:55:24.783Z,11.87
2018-12-05T05:57:54.253Z,13.67
2018-12-05T06:00:24.578Z,12.27
2018-12-05T06:02:54.157Z,12.13
2018-12-05T06:05:23.593Z,10.93
2018-12-05T06:07:53.295Z,11.57
2018-12-05T06:10:22.645Z,11.90
2018-12-05T06:12:52.086Z,10.37
2018-12-05T06:15:21.524Z,10.47
2018-12-05T06:17:50.900Z,10.73
2018-12-05T06:20:20.203Z,11.37
2018-12-05T06:22:49.698Z,11.20
2018-12-05T06:25:23.960Z,11.13
2018-12-05T06:27:53.309Z,10.70
2018-12-05T06:30:22.855Z,11.17
2018-12-05T06:32:52.117Z,10.53
2018-12-05T06:35:21.421Z,10.57
2018-12-05T06:37:50.809Z,10.33
2018-12-05T06:40:20.088Z,10.37
2018-12-05T06:42:49.597Z,11.57
2018-12-05T06:45:19.042Z,11.07
2018-12-05T06:47:48.400Z,12.60
2018-12-05T06:50:18.659Z,11.33
2018-12-05T06:52:58.457Z,10.87
2018-12-05T06:55:27.709Z,10.37
2018-12-05T06:57:57.146Z,9.43
2018-12-05T07:03:19.891Z,10.17
2018-12-05T07:05:54.544Z,11.40
2018-12-05T07:08:24.392Z,10.20
2018-12-05T07:10:54.287Z,11.07
2018-12-05T07:13:24.562Z,9.67
2018-12-05T07:15:54.088Z,9.83
2018-12-05T07:18:23.419Z,9.73
2018-12-05T07:20:52.636Z,9.33
2018-12-05T07:23:22.112Z,9.70
2018-12-05T07:25:51.484Z,9.43
2018-12-05T07:28:20.836Z,9.73
2018-12-05T07:30:50.156Z,9.97
2018-12-05T07:33:19.739Z,10.87
2018-12-05T07:35:49.137Z,9.20
2018-12-05T07:38:19.611Z,9.73
2018-12-05T07:40:49.116Z,9.23
2018-12-05T07:43:18.384Z,8.93
2018-12-05T07:45:47.735Z,10.93
2018-12-05T07:48:17.201Z,8.70
2018-12-05T07:50:46.710Z,8.30
2018-12-05T07:53:15.881Z,8.67
2018-12-05T07:55:45.244Z,9.87
2018-12-05T07:58:14.627Z,8.17
2018-12-05T08:00:44.701Z,8.30
2018-12-05T08:03:14.106Z,8.80
2018-12-05T08:05:43.736Z,7.37
2018-12-05T08:08:13.186Z,7.80
2018-12-05T08:10:42.899Z,8.03
2018-12-05T08:13:13.061Z,6.93
2018-12-05T08:15:42.353Z,7.67
2018-12-05T08:18:11.761Z,7.43
2018-12-05T08:20:41.106Z,6.97
2018-12-05T08:23:10.391Z,6.87
2018-12-05T08:25:40.940Z,8.50
2018-12-05T08:28:10.517Z,10.10
2018-12-05T08:30:39.749Z,8.17
2018-12-05T08:33:09.152Z,7.30
2018-12-05T08:35:40.644Z,6.93
2018-12-05T08:38:10.012Z,7.33
2018-12-05T08:40:39.244Z,7.90
2018-12-05T08:43:08.647Z,7.33
2018-12-05T08:45:38.845Z,7.73
2018-12-05T08:48:08.304Z,8.17
2018-12-05T08:50:37.572Z,8.07
2018-12-05T08:53:06.775Z,6.47
2018-12-05T08:55:36.072Z,6.83
2018-12-05T08:58:05.785Z,6.60
2018-12-05T09:00:35.711Z,6.97
2018-12-05T09:03:05.244Z,7.83
2018-12-05T09:05:34.817Z,6.40
2018-12-05T09:08:04.382Z,7.03
2018-12-05T09:10:33.978Z,6.87
2018-12-05T09:13:03.870Z,6.47
2018-12-05T09:15:33.245Z,5.93
2018-12-05T09:18:03.882Z,6.03
2018-12-05T09:20:33.787Z,6.70
2018-12-05T09:23:03.116Z,5.93
2018-12-05T09:25:32.494Z,6.00
2018-12-05T09:28:02.305Z,6.53
2018-12-05T09:30:31.821Z,7.03
2018-12-05T09:33:01.217Z,6.40
2018-12-05T09:35:30.669Z,7.67
2018-12-05T09:38:00.743Z,6.93
2018-12-05T09:40:30.418Z,7.30
2018-12-05T09:43:00.071Z,6.73
2018-12-05T09:45:29.355Z,9.20
2018-12-05T09:47:58.764Z,6.87
2018-12-05T09:50:27.991Z,7.07
2018-12-05T09:52:57.810Z,7.53
2018-12-05T09:55:27.153Z,7.83
2018-12-05T09:57:56.424Z,8.47
2018-12-05T10:00:25.609Z,8.30
2018-12-05T10:02:54.872Z,7.23
2018-12-05T10:05:24.101Z,7.53
2018-12-05T10:07:53.493Z,8.70
2018-12-05T10:10:22.779Z,7.77
2018-12-05T10:12:52.469Z,8.00
2018-12-05T10:15:22.022Z,8.40
2018-12-05T10:17:51.575Z,9.50
2018-12-05T10:20:21.111Z,8.63
2018-12-05T10:22:50.405Z,8.70
2018-12-05T10:25:19.986Z,9.00
2018-12-05T10:27:49.449Z,9.07
2018-12-05T10:30:18.888Z,8.33
2018-12-05T10:32:48.742Z,8.93
2018-12-05T10:35:18.036Z,9.60
2018-12-05T10:37:49.208Z,9.00
2018-12-05T10:40:21.789Z,9.30
2018-12-05T10:42:51.057Z,8.87
2018-12-05T10:45:20.473Z,9.03
2018-12-05T10:47:49.685Z,9.03
2018-12-05T10:50:19.008Z,8.67
2018-12-05T10:52:48.537Z,10.20
2018-12-05T10:55:18.033Z,10.33
2018-12-05T10:57:48.293Z,9.17
2018-12-05T11:00:25.241Z,10.97
2018-12-05T11:03:00.456Z,9.20
2018-12-05T11:05:34.920Z,10.60
2018-12-05T11:08:20.038Z,11.10
2018-12-05T11:10:54.763Z,10.23
2018-12-05T11:13:29.731Z,10.00
2018-12-05T11:16:04.383Z,10.50
2018-12-05T11:18:39.032Z,9.90
2018-12-05T11:21:13.696Z,10.70
2018-12-05T11:24:48.110Z,10.43
2018-12-05T11:27:17.971Z,10.07
2018-12-05T11:29:47.734Z,9.80
2018-12-05T11:32:16.917Z,9.83
2018-12-05T11:34:46.222Z,10.57
2018-12-05T11:37:15.881Z,9.73
2018-12-05T11:39:45.101Z,9.37
2018-12-05T11:42:14.579Z,11.03
2018-12-05T11:44:44.068Z,12.40
2018-12-05T11:47:13.383Z,9.93
2018-12-05T11:49:43.004Z,9.20
2018-12-05T11:52:12.283Z,9.93
2018-12-05T11:54:41.738Z,10.17
2018-12-05T11:57:11.512Z,12.00
2018-12-05T11:59:41.354Z,10.17
2018-12-05T12:02:10.923Z,10.33
2018-12-05T12:04:40.336Z,10.43
2018-12-05T12:07:09.772Z,10.90
2018-12-05T12:09:40.279Z,10.73
2018-12-05T12:12:13.879Z,9.97
2018-12-05T12:14:43.268Z,10.50
2018-12-05T12:17:12.874Z,9.23
2018-12-05T12:19:42.440Z,9.73
2018-12-05T12:22:12.309Z,10.20
2018-12-05T12:24:41.527Z,10.87
2018-12-05T12:27:10.870Z,9.90
2018-12-05T12:29:40.195Z,9.83
2018-12-05T12:32:09.631Z,9.77
2018-12-05T12:34:38.826Z,10.67
2018-12-05T12:37:08.127Z,10.30
2018-12-05T12:39:37.508Z,10.30
2018-12-05T12:42:07.084Z,11.00
2018-12-05T12:44:36.463Z,10.17
2018-12-05T12:47:05.790Z,10.43
2018-12-05T12:49:35.308Z,10.23
2018-12-05T12:52:04.491Z,9.70
2018-12-05T12:54:34.377Z,9.83
2018-12-05T12:57:03.921Z,13.47
2018-12-05T12:59:33.219Z,9.43
2018-12-05T13:02:02.644Z,9.83
2018-12-05T13:04:31.910Z,10.23
2018-12-05T13:07:01.328Z,10.17
2018-12-05T13:09:31.187Z,9.77
2018-12-05T13:12:00.524Z,10.00
2018-12-05T13:14:29.895Z,9.83
2018-12-05T13:16:59.256Z,9.53
2018-12-05T13:19:28.543Z,9.70
2018-12-05T13:21:57.734Z,10.23
2018-12-05T13:24:28.769Z,9.50
2018-12-05T13:26:58.156Z,10.90
2018-12-05T13:29:27.687Z,10.07
2018-12-05T13:31:57.004Z,11.00
2018-12-05T13:34:26.328Z,9.93
2018-12-05T13:36:55.714Z,10.50
2018-12-05T13:39:25.050Z,10.37
2018-12-05T13:41:54.387Z,9.47
2018-12-05T13:44:23.608Z,11.27
2018-12-05T13:46:53.173Z,9.67
2018-12-05T13:49:23.370Z,10.57
2018-12-05T13:51:52.919Z,10.63
2018-12-05T13:54:22.546Z,11.13
2018-12-05T13:56:51.913Z,10.10
2018-12-05T13:59:21.249Z,10.60
2018-12-05T14:01:52.363Z,11.00
2018-12-05T14:04:21.868Z,10.83
2018-12-05T14:06:52.121Z,13.67
2018-12-05T14:09:21.449Z,10.97
2018-12-05T14:11:50.765Z,10.90
2018-12-05T14:14:20.031Z,11.70
2018-12-05T14:16:49.496Z,10.33
2018-12-05T14:19:18.847Z,11.93
2018-12-05T14:21:48.272Z,10.50
2018-12-05T14:24:17.596Z,10.90
2018-12-05T14:26:47.020Z,12.60
2018-12-05T14:29:16.520Z,11.87
2018-12-05T14:31:47.658Z,11.00
2018-12-05T14:34:17.507Z,12.67
2018-12-05T14:36:46.733Z,11.33
2018-12-05T14:39:16.155Z,11.77
2018-12-05T14:41:45.578Z,11.37
2018-12-05T14:44:14.780Z,13.00
2018-12-05T14:46:44.050Z,11.90
2018-12-05T14:49:14.673Z,11.67
2018-12-05T14:51:44.111Z,12.00
2018-12-05T14:54:13.651Z,11.13
2018-12-05T14:56:42.962Z,11.67
2018-12-05T14:59:13.232Z,11.30
2018-12-05T15:01:43.684Z,11.53
2018-12-05T15:04:13.162Z,11.93
2018-12-05T15:06:51.277Z,10.97
2018-12-05T15:09:20.800Z,11.60
2018-12-05T15:11:50.709Z,11.67
2018-12-05T15:14:20.753Z,12.37
2018-12-05T15:16:50.678Z,12.30
2018-12-05T15:19:19.857Z,11.70
2018-12-05T15:21:49.234Z,12.03
2018-12-05T15:24:18.488Z,12.63
2018-12-05T15:26:47.918Z,10.97
2018-12-05T15:29:17.412Z,11.10
2018-12-05T15:31:46.839Z,11.87
2018-12-05T15:34:16.435Z,11.43
2018-12-05T15:36:45.840Z,11.47
2018-12-05T15:39:16.600Z,10.90
2018-12-05T15:41:46.460Z,10.50
2018-12-05T15:44:15.865Z,11.10
2018-12-05T15:46:45.126Z,11.00
2018-12-05T15:49:14.575Z,11.37
2018-12-05T15:51:44.174Z,11.33
2018-12-05T15:54:13.683Z,12.10
2018-12-05T15:56:43.321Z,10.43
2018-12-05T15:59:12.761Z,10.57
2018-12-05T16:01:42.134Z,11.33
2018-12-05T16:04:11.384Z,11.23
2018-12-05T16:06:40.814Z,10.37
2018-12-05T16:09:10.791Z,10.43
2018-12-05T16:11:41.225Z,10.97
2018-12-05T16:14:10.710Z,10.77
2018-12-05T16:16:40.059Z,10.57
2018-12-05T16:19:09.422Z,10.90
2018-12-05T16:21:38.735Z,10.23
2018-12-05T16:24:08.266Z,11.03
2018-12-05T16:26:37.767Z,9.73
2018-12-05T16:29:07.685Z,9.57
2018-12-05T16:31:38.083Z,10.57
2018-12-05T16:34:07.354Z,9.67
2018-12-05T16:36:36.647Z,10.83
2018-12-05T16:39:08.268Z,9.97
2018-12-05T16:41:37.531Z,11.97
2018-12-05T16:44:12.767Z,10.17
2018-12-05T16:46:38.206Z,10.20
2018-12-05T16:49:07.505Z,10.80
2018-12-05T16:51:36.971Z,10.40
2018-12-05T16:54:07.339Z,13.38
2018-12-05T16:56:36.815Z,11.13
2018-12-05T16:59:07.531Z,10.53
2018-12-05T17:01:37.310Z,10.90
2018-12-05T17:04:06.574Z,10.43
2018-12-05T17:06:35.786Z,10.83
2018-12-05T17:09:07.909Z,10.63
2018-12-05T17:11:37.080Z,10.63
2018-12-05T17:14:06.448Z,10.73
2018-12-05T17:16:35.760Z,10.73
2018-12-05T17:19:05.426Z,10.80
2018-12-05T17:21:34.656Z,10.23
2018-12-05T17:24:04.078Z,9.73
2018-12-05T17:26:33.369Z,10.77
2018-12-05T17:29:03.445Z,10.50
2018-12-05T17:31:33.702Z,10.30
2018-12-05T17:34:03.413Z,11.50
2018-12-05T17:36:32.918Z,10.63
2018-12-05T17:39:02.339Z,11.90
2018-12-05T17:41:32.267Z,10.67
2018-12-05T17:44:01.605Z,11.33
2018-12-05T17:46:30.981Z,12.83
2018-12-05T17:49:00.382Z,10.47
2018-12-05T17:51:29.645Z,12.03
2018-12-05T17:53:59.025Z,12.77
2018-12-05T17:56:28.281Z,10.70
2018-12-05T17:58:57.756Z,10.67
2018-12-05T18:01:27.142Z,10.80
2018-12-05T18:03:59.307Z,11.50
2018-12-05T18:06:30.003Z,12.10
2018-12-05T18:08:59.464Z,11.07
2018-12-05T18:11:28.709Z,10.70
2018-12-05T18:13:58.777Z,11.27
2018-12-05T18:16:28.575Z,9.60
2018-12-05T18:18:58.356Z,11.10
2018-12-05T18:21:27.596Z,11.30
2018-12-05T18:23:56.993Z,10.83
2018-12-05T18:26:26.214Z,10.60
2018-12-05T18:28:55.419Z,10.73
2018-12-05T18:31:24.788Z,10.87
2018-12-05T18:33:54.052Z,10.80
2018-12-05T18:36:23.329Z,10.40
2018-12-05T18:38:52.553Z,10.30
2018-12-05T18:41:22.003Z,11.03
2018-12-05T18:43:52.426Z,10.80
2018-12-05T18:46:21.723Z,9.83
2018-12-05T18:48:50.938Z,10.27
2018-12-05T18:51:21.202Z,9.57
2018-12-05T18:53:51.729Z,9.33
2018-12-05T18:56:21.165Z,10.30
2018-12-05T18:58:50.852Z,10.23
2018-12-05T19:01:20.371Z,10.57
2018-12-05T19:03:49.571Z,10.97
2018-12-05T19:06:20.231Z,10.47
2018-12-05T19:08:50.197Z,10.27
2018-12-05T19:11:19.609Z,11.20
2018-12-05T19:13:54.183Z,10.20
2018-12-05T19:16:23.503Z,11.00
2018-12-05T19:18:52.737Z,9.57
2018-12-05T19:21:22.837Z,10.87
2018-12-05T19:23:52.047Z,10.17
2018-12-05T19:26:21.443Z,11.07
2018-12-05T19:28:51.079Z,9.83
2018-12-05T19:31:20.606Z,10.60
2018-12-05T19:33:49.763Z,10.10
2018-12-05T19:36:20.077Z,10.97
2018-12-05T19:38:49.482Z,9.17
2018-12-05T19:41:25.444Z,9.73
2018-12-05T19:43:54.688Z,10.77
2018-12-05T19:46:24.044Z,10.40
2018-12-05T19:48:53.444Z,10.57
2018-12-05T19:51:22.869Z,10.13
2018-12-05T19:53:52.242Z,11.00
2018-12-05T19:56:21.756Z,10.70
2018-12-05T19:58:51.152Z,11.07
2018-12-05T20:01:20.890Z,11.03
2018-12-05T20:03:50.323Z,10.50
2018-12-05T20:06:20.068Z,10.27
2018-12-05T20:08:49.292Z,11.00
2018-12-05T20:11:18.544Z,11.03
2018-12-05T20:13:49.001Z,10.47
2018-12-05T20:16:19.964Z,10.97
2018-12-05T20:18:49.538Z,10.43
2018-12-05T20:21:18.830Z,11.43
2018-12-05T20:23:48.070Z,11.10
2018-12-05T20:26:17.261Z,11.00
2018-12-05T20:28:46.465Z,10.37
2018-12-05T20:31:15.780Z,10.90
2018-12-05T20:33:45.059Z,10.20
2018-12-05T20:36:14.773Z,11.23
2018-12-05T20:38:44.157Z,10.77
2018-12-05T20:41:13.708Z,11.53
2018-12-05T20:43:43.062Z,10.23
2018-12-05T20:46:12.507Z,10.77
2018-12-05T20:48:41.703Z,10.33
2018-12-05T20:51:10.969Z,11.50
2018-12-05T20:53:41.056Z,10.77
2018-12-05T20:56:10.512Z,10.07
2018-12-05T20:58:39.815Z,10.93
2018-12-05T21:01:09.312Z,10.20
2018-12-05T21:03:38.787Z,10.10
2018-12-05T21:06:09.862Z,10.80
2018-12-05T21:08:39.316Z,10.70
2018-12-05T21:11:08.595Z,10.53
2018-12-05T21:13:38.102Z,10.13
2018-12-05T21:16:07.449Z,11.33
2018-12-05T21:18:38.549Z,10.73
2018-12-05T21:21:07.888Z,10.30
2018-12-05T21:23:37.403Z,11.63
2018-12-05T21:26:06.824Z,11.13
2018-12-05T21:28:36.329Z,11.17
2018-12-05T21:31:06.625Z,11.97
2018-12-05T21:33:37.978Z,12.83
2018-12-05T21:36:08.465Z,11.23
2018-12-05T21:38:38.958Z,12.07
2018-12-05T21:41:08.715Z,11.10
2018-12-05T21:43:38.911Z,10.43
2018-12-05T21:46:09.621Z,11.13
2018-12-05T21:48:39.415Z,11.97
2018-12-05T21:51:08.995Z,11.23
2018-12-05T21:53:38.498Z,10.77
2018-12-05T21:56:07.762Z,11.87
2018-12-05T21:58:37.133Z,11.10
2018-12-05T22:01:06.352Z,11.83
2018-12-05T22:03:35.923Z,11.23
2018-12-05T22:06:05.766Z,11.43
2018-12-05T22:08:35.497Z,11.93
2018-12-05T22:11:04.955Z,11.80
2018-12-05T22:13:35.339Z,11.53
2018-12-05T22:16:04.572Z,11.97
2018-12-05T22:18:33.889Z,11.60
2018-12-05T22:21:03.180Z,11.80
2018-12-05T22:23:33.634Z,12.10
2018-12-05T22:26:03.103Z,12.03
2018-12-05T22:28:32.340Z,10.83
2018-12-05T22:31:01.851Z,11.93
2018-12-05T22:33:31.249Z,11.73
2018-12-05T22:36:01.642Z,11.13
2018-12-05T22:38:31.630Z,11.93
2018-12-05T22:41:04.777Z,11.37
2018-12-05T22:43:34.795Z,11.33
2018-12-05T22:46:04.280Z,11.87
2018-12-05T22:48:34.366Z,12.17
2018-12-05T22:51:04.850Z,11.63
2018-12-05T22:53:34.112Z,11.73
2018-12-05T22:56:04.064Z,12.00
2018-12-05T22:58:34.324Z,12.13
2018-12-05T23:01:04.966Z,12.27
2018-12-05T23:03:34.482Z,11.37
2018-12-05T23:06:04.220Z,11.50
2018-12-05T23:08:33.683Z,11.43
2018-12-05T23:11:03.459Z,12.80
2018-12-05T23:13:32.892Z,11.47
2018-12-05T23:16:02.481Z,12.17
2018-12-05T23:18:32.071Z,11.20
2018-12-05T23:21:03.116Z,12.10
2018-12-05T23:23:32.499Z,11.20
2018-12-05T23:26:02.020Z,11.73
2018-12-05T23:28:31.304Z,11.07
2018-12-05T23:31:00.725Z,11.53
2018-12-05T23:33:30.079Z,10.97
2018-12-05T23:35:59.304Z,10.93
2018-12-05T23:38:29.516Z,11.50
2018-12-05T23:40:59.320Z,10.73
2018-12-05T23:43:28.960Z,10.00
2018-12-05T23:45:58.209Z,10.80
2018-12-05T23:48:27.482Z,11.37
2018-12-05T23:50:56.811Z,10.40
2018-12-05T23:53:26.106Z,11.03
2018-12-05T23:55:55.348Z,10.93
2018-12-05T23:58:24.562Z,10.47
